createdAt,value
2023-02-16T00:00:24.154Z,64.32
2023-02-16T00:02:51.610Z,64.50
2023-02-16T00:05:29.022Z,64.41
2023-02-16T00:07:58.076Z,64.36
2023-02-16T00:10:31.360Z,63.86
2023-02-16T00:13:17.692Z,62.80
2023-02-16T00:15:45.163Z,62.69
2023-02-16T00:18:20.956Z,62.79
2023-02-16T00:20:49.453Z,63.17
2023-02-16T00:23:16.973Z,63.23
2023-02-16T00:25:44.564Z,63.01
2023-02-16T00:28:17.769Z,63.48
2023-02-16T00:30:46.627Z,63.56
2023-02-16T00:33:20.130Z,63.33
2023-02-16T00:35:48.148Z,63.56
2023-02-16T00:38:17.144Z,64.17
2023-02-16T00:40:44.688Z,63.98
2023-02-16T00:43:24.557Z,64.24
2023-02-16T00:45:52.600Z,63.79
2023-02-16T00:48:20.348Z,64.46
2023-02-16T00:50:48.011Z,64.68
2023-02-16T00:53:18.369Z,64.79
2023-02-16T00:55:45.816Z,65.32
2023-02-16T00:58:26.680Z,66.21
2023-02-16T01:00:58.208Z,66.54
2023-02-16T01:03:27.004Z,66.75
2023-02-16T01:06:14.658Z,66.66
2023-02-16T01:09:00.571Z,66.41
2023-02-16T01:11:28.252Z,66.70
2023-02-16T01:13:56.882Z,66.42
2023-02-16T01:16:36.741Z,66.35
2023-02-16T01:19:04.644Z,66.16
2023-02-16T01:21:32.322Z,65.14
2023-02-16T01:24:02.094Z,65.20
2023-02-16T01:26:30.217Z,66.35
2023-02-16T01:28:57.629Z,66.21
2023-02-16T01:31:25.098Z,66.05
2023-02-16T01:33:52.622Z,66.10
2023-02-16T01:36:26.463Z,65.94
2023-02-16T01:38:54.023Z,66.01
2023-02-16T01:41:58.871Z,66.08
2023-02-16T01:44:38.866Z,65.84
2023-02-16T01:47:19.293Z,66.17
2023-02-16T01:49:46.694Z,66.32
2023-02-16T01:52:24.212Z,66.50
2023-02-16T01:55:03.542Z,67.07
2023-02-16T01:57:47.472Z,67.36
2023-02-16T02:00:15.108Z,67.64
2023-02-16T02:02:52.714Z,67.47
2023-02-16T02:05:36.956Z,67.06
2023-02-16T02:08:19.572Z,67.42
2023-02-16T02:11:10.090Z,67.82
2023-02-16T02:13:49.448Z,68.23
2023-02-16T02:16:20.271Z,69.04
2023-02-16T02:18:48.572Z,68.92
2023-02-16T02:21:55.664Z,68.99
2023-02-16T02:24:29.160Z,69.04
2023-02-16T02:27:04.375Z,69.91
2023-02-16T02:29:54.833Z,69.98
2023-02-16T02:32:37.424Z,70.00
2023-02-16T02:35:17.703Z,70.14
2023-02-16T02:37:48.211Z,69.68
2023-02-16T02:40:30.753Z,70.19
2023-02-16T02:43:21.072Z,70.17
2023-02-16T02:46:01.405Z,70.19
2023-02-16T02:48:34.354Z,69.49
2023-02-16T02:51:28.683Z,69.48
2023-02-16T02:54:22.900Z,69.13
2023-02-16T02:57:34.147Z,69.49
2023-02-16T03:00:27.176Z,69.35
2023-02-16T03:03:02.101Z,69.60
2023-02-16T03:05:33.652Z,69.47
2023-02-16T03:08:14.312Z,70.89
2023-02-16T03:11:10.799Z,69.97
2023-02-16T03:13:42.832Z,69.70
2023-02-16T03:16:20.099Z,69.24
2023-02-16T03:19:06.863Z,69.07
2023-02-16T03:21:54.315Z,68.52
2023-02-16T03:24:47.802Z,68.75
2023-02-16T03:27:42.931Z,68.38
2023-02-16T03:30:12.660Z,68.24
2023-02-16T03:32:40.258Z,68.50
2023-02-16T03:35:08.705Z,68.89
2023-02-16T03:37:36.329Z,69.23
2023-02-16T03:40:25.369Z,68.88
2023-02-16T03:42:52.784Z,69.97
2023-02-16T03:45:21.236Z,69.17
2023-02-16T03:47:48.776Z,68.92
2023-02-16T03:50:16.658Z,69.33
2023-02-16T03:52:44.057Z,71.51
2023-02-16T03:55:11.543Z,71.89
2023-02-16T03:57:39.785Z,71.90
2023-02-16T04:00:08.069Z,70.58
2023-02-16T04:02:44.141Z,72.37
2023-02-16T04:05:11.473Z,71.96
2023-02-16T04:07:38.797Z,71.47
2023-02-16T04:10:06.716Z,71.34
2023-02-16T04:12:36.974Z,71.65
2023-02-16T04:15:09.898Z,71.49
2023-02-16T04:17:37.494Z,71.45
2023-02-16T04:20:07.046Z,71.52
2023-02-16T04:22:34.538Z,71.59
2023-02-16T04:25:01.878Z,71.90
2023-02-16T04:27:29.271Z,72.10
2023-02-16T04:29:56.718Z,72.92
2023-02-16T04:32:24.100Z,73.09
2023-02-16T04:34:51.472Z,72.80
2023-02-16T04:37:18.973Z,73.07
2023-02-16T04:39:46.295Z,73.35
2023-02-16T04:42:13.692Z,73.49
2023-02-16T04:44:41.162Z,73.63
2023-02-16T04:47:08.580Z,73.48
2023-02-16T04:49:35.952Z,73.36
2023-02-16T04:52:04.060Z,73.45
2023-02-16T04:54:32.537Z,73.58
2023-02-16T04:57:00.238Z,73.60
2023-02-16T04:59:27.840Z,73.80
2023-02-16T05:01:55.230Z,73.44
2023-02-16T05:04:23.512Z,73.42
2023-02-16T05:06:50.888Z,73.69
2023-02-16T05:09:18.293Z,73.64
2023-02-16T05:12:04.151Z,73.30
2023-02-16T05:14:43.015Z,74.41
2023-02-16T05:17:15.376Z,74.48
2023-02-16T05:19:45.216Z,74.68
2023-02-16T05:22:13.431Z,74.88
2023-02-16T05:24:41.609Z,74.55
2023-02-16T05:27:12.591Z,74.55
2023-02-16T05:29:39.988Z,74.81
2023-02-16T05:32:07.436Z,74.42
2023-02-16T05:34:35.331Z,74.38
2023-02-16T05:37:02.956Z,74.07
2023-02-16T05:39:30.661Z,73.55
2023-02-16T05:41:58.505Z,73.71
2023-02-16T05:44:26.047Z,73.76
2023-02-16T05:46:53.396Z,73.29
2023-02-16T05:49:20.730Z,73.10
2023-02-16T05:51:48.286Z,73.16
2023-02-16T05:54:18.709Z,73.38
2023-02-16T05:56:48.713Z,73.01
2023-02-16T05:59:17.434Z,72.94
2023-02-16T06:01:50.549Z,73.14
2023-02-16T06:04:19.258Z,73.56
2023-02-16T06:06:46.754Z,73.26
2023-02-16T06:09:14.594Z,73.37
2023-02-16T06:11:42.296Z,73.66
2023-02-16T06:14:11.155Z,73.00
2023-02-16T06:16:40.632Z,73.70
2023-02-16T06:19:08.205Z,73.54
2023-02-16T06:21:37.564Z,73.67
2023-02-16T06:24:06.023Z,73.93
2023-02-16T06:26:33.844Z,74.26
2023-02-16T06:29:01.399Z,74.25
2023-02-16T06:31:28.935Z,74.80
2023-02-16T06:33:57.137Z,74.22
2023-02-16T06:36:25.251Z,73.78
2023-02-16T06:38:52.659Z,73.02
2023-02-16T06:41:32.172Z,73.46
2023-02-16T06:44:00.732Z,73.39
2023-02-16T06:46:28.482Z,74.39
2023-02-16T06:48:56.182Z,73.68
2023-02-16T06:51:24.089Z,73.46
2023-02-16T06:53:51.574Z,73.20
2023-02-16T06:56:19.095Z,73.38
2023-02-16T06:58:46.461Z,73.79
2023-02-16T07:01:14.048Z,73.22
2023-02-16T07:03:41.490Z,73.19
2023-02-16T07:06:08.919Z,71.99
2023-02-16T07:08:36.314Z,71.63
2023-02-16T07:11:04.500Z,70.01
2023-02-16T07:13:36.459Z,69.22
2023-02-16T07:16:05.707Z,68.95
2023-02-16T07:18:34.048Z,68.74
2023-02-16T07:21:02.004Z,68.63
2023-02-16T07:23:29.914Z,68.13
2023-02-16T07:25:57.291Z,68.16
2023-02-16T07:28:25.191Z,68.17
2023-02-16T07:30:52.611Z,67.62
2023-02-16T07:33:21.152Z,67.41
2023-02-16T07:35:50.320Z,67.45
2023-02-16T07:38:17.667Z,67.45
2023-02-16T07:40:45.035Z,67.83
2023-02-16T07:43:12.483Z,67.86
2023-02-16T07:45:39.863Z,67.78
2023-02-16T07:48:07.470Z,67.11
2023-02-16T07:50:36.596Z,66.59
2023-02-16T07:53:04.006Z,66.16
2023-02-16T07:55:31.424Z,65.93
2023-02-16T07:57:58.928Z,66.15
2023-02-16T08:00:26.963Z,66.10
2023-02-16T08:02:54.509Z,65.01
2023-02-16T08:05:21.990Z,64.20
2023-02-16T08:07:49.578Z,63.45
2023-02-16T08:10:17.212Z,63.83
2023-02-16T08:12:44.860Z,63.57
2023-02-16T08:15:12.612Z,64.19
2023-02-16T08:17:40.102Z,63.88
2023-02-16T08:20:09.072Z,63.90
2023-02-16T08:22:37.167Z,62.84
2023-02-16T08:25:06.980Z,62.66
2023-02-16T08:27:35.793Z,61.13
2023-02-16T08:30:03.981Z,60.26
2023-02-16T08:32:31.629Z,59.65
2023-02-16T08:34:59.009Z,58.65
2023-02-16T08:37:26.356Z,57.65
2023-02-16T08:39:53.928Z,56.60
2023-02-16T08:42:21.345Z,55.94
2023-02-16T08:44:48.820Z,56.45
2023-02-16T08:47:18.463Z,55.72
2023-02-16T08:49:46.189Z,55.73
2023-02-16T08:52:13.996Z,55.74
2023-02-16T08:54:41.483Z,55.76
2023-02-16T08:57:09.447Z,54.37
2023-02-16T08:59:36.856Z,53.80
2023-02-16T09:02:04.378Z,53.82
2023-02-16T09:04:32.197Z,53.08
2023-02-16T09:06:59.947Z,52.30
2023-02-16T09:09:28.577Z,52.90
2023-02-16T09:11:57.477Z,54.09
2023-02-16T09:14:24.899Z,55.55
2023-02-16T09:16:52.990Z,57.26
2023-02-16T09:19:21.403Z,58.64
2023-02-16T09:21:51.004Z,60.60
2023-02-16T09:24:19.229Z,62.00
2023-02-16T09:26:46.699Z,63.29
2023-02-16T09:29:14.241Z,64.04
2023-02-16T09:31:44.294Z,63.53
2023-02-16T09:34:18.419Z,63.21
2023-02-16T09:36:47.212Z,63.57
2023-02-16T09:39:16.991Z,64.00
2023-02-16T09:41:56.058Z,64.45
2023-02-16T09:44:41.201Z,64.01
2023-02-16T09:47:22.511Z,64.03
2023-02-16T09:49:50.171Z,64.09
2023-02-16T09:52:40.313Z,64.13
2023-02-16T09:55:13.560Z,63.84
2023-02-16T09:58:10.499Z,63.32
2023-02-16T10:00:43.394Z,62.48
2023-02-16T10:03:21.230Z,62.24
2023-02-16T10:06:14.160Z,61.50
2023-02-16T10:08:45.814Z,60.66
2023-02-16T10:11:38.764Z,61.13
2023-02-16T10:14:30.933Z,60.83
2023-02-16T10:17:16.791Z,60.14
2023-02-16T10:19:54.660Z,58.96
2023-02-16T10:22:55.165Z,58.17
2023-02-16T10:25:29.603Z,57.95
2023-02-16T10:28:18.918Z,57.65
2023-02-16T10:31:05.956Z,57.55
2023-02-16T10:33:42.660Z,56.85
2023-02-16T10:36:41.894Z,57.08
2023-02-16T10:39:38.310Z,56.60
2023-02-16T10:42:37.644Z,56.28
2023-02-16T10:45:24.119Z,56.29
2023-02-16T10:47:52.211Z,56.65
2023-02-16T10:50:25.387Z,56.82
2023-02-16T10:52:58.420Z,56.50
2023-02-16T10:55:26.368Z,56.61
2023-02-16T10:57:57.434Z,56.67
2023-02-16T11:01:04.091Z,56.51
2023-02-16T11:03:35.899Z,56.68
2023-02-16T11:06:25.721Z,57.21
2023-02-16T11:09:04.383Z,57.43
2023-02-16T11:11:40.882Z,56.48
2023-02-16T11:14:23.448Z,55.87
2023-02-16T11:17:12.743Z,55.23
2023-02-16T11:19:49.240Z,55.70
2023-02-16T11:22:45.822Z,56.30
2023-02-16T11:25:23.613Z,56.05
2023-02-16T11:27:59.989Z,56.33
2023-02-16T11:30:36.512Z,56.88
2023-02-16T11:33:22.983Z,56.59
2023-02-16T11:35:50.526Z,56.33
2023-02-16T11:38:36.080Z,56.52
2023-02-16T11:41:06.705Z,55.86
2023-02-16T11:43:38.916Z,55.76
2023-02-16T11:46:18.454Z,55.93
2023-02-16T11:48:46.401Z,55.91
2023-02-16T11:51:15.618Z,56.49
2023-02-16T11:53:45.924Z,57.02
2023-02-16T11:56:29.507Z,57.15
2023-02-16T11:59:20.955Z,56.05
2023-02-16T12:02:12.902Z,56.07
2023-02-16T12:04:50.930Z,55.86
2023-02-16T12:07:27.735Z,55.86
2023-02-16T12:10:12.785Z,55.38
2023-02-16T12:13:11.274Z,55.16
2023-02-16T12:15:52.141Z,55.38
2023-02-16T12:18:34.264Z,54.64
2023-02-16T12:21:37.160Z,54.61
2023-02-16T12:24:17.977Z,53.55
2023-02-16T12:27:25.581Z,52.56
2023-02-16T12:30:14.705Z,52.02
2023-02-16T12:32:54.507Z,53.11
2023-02-16T12:35:58.285Z,52.50
2023-02-16T12:38:28.735Z,53.01
2023-02-16T12:41:28.408Z,53.43
2023-02-16T12:44:03.928Z,52.93
2023-02-16T12:46:44.777Z,53.21
2023-02-16T12:49:46.130Z,53.19
2023-02-16T12:52:37.705Z,53.84
2023-02-16T12:55:19.845Z,53.91
2023-02-16T12:57:59.428Z,53.92
2023-02-16T13:00:48.629Z,53.42
2023-02-16T13:03:44.829Z,52.92
2023-02-16T13:06:29.936Z,53.02
2023-02-16T13:09:25.104Z,52.90
2023-02-16T13:12:02.576Z,52.60
2023-02-16T13:14:34.296Z,53.04
2023-02-16T13:17:04.067Z,53.31
2023-02-16T13:19:31.587Z,53.24
2023-02-16T13:23:03.710Z,53.38
2023-02-16T13:25:45.073Z,53.07
2023-02-16T13:28:31.489Z,53.79
2023-02-16T13:31:18.046Z,53.71
2023-02-16T13:34:04.123Z,53.96
2023-02-16T13:36:43.717Z,54.04
2023-02-16T13:39:27.378Z,53.94
2023-02-16T13:42:03.590Z,53.96
2023-02-16T13:44:47.626Z,53.43
2023-02-16T13:47:24.147Z,53.28
2023-02-16T13:49:58.713Z,53.97
2023-02-16T13:52:39.489Z,54.04
2023-02-16T13:55:22.288Z,53.70
2023-02-16T13:57:51.752Z,53.58
2023-02-16T14:00:42.260Z,53.74
2023-02-16T14:03:38.075Z,54.10
2023-02-16T14:06:27.920Z,54.07
2023-02-16T14:09:11.061Z,54.34
2023-02-16T14:11:53.768Z,54.97
2023-02-16T14:14:31.405Z,55.19
2023-02-16T14:17:23.300Z,55.36
2023-02-16T14:19:53.493Z,55.91
2023-02-16T14:22:24.644Z,55.99
2023-02-16T14:24:58.568Z,56.53
2023-02-16T14:27:47.868Z,55.92
2023-02-16T14:30:43.058Z,56.24
2023-02-16T14:33:11.962Z,56.40
2023-02-16T14:35:42.270Z,56.67
2023-02-16T14:38:41.729Z,56.95
2023-02-16T14:41:25.889Z,57.17
2023-02-16T14:44:17.044Z,57.41
2023-02-16T14:46:56.098Z,57.41
2023-02-16T14:49:38.242Z,57.56
2023-02-16T14:52:37.291Z,58.16
2023-02-16T14:55:40.419Z,57.86
2023-02-16T14:58:29.258Z,57.51
2023-02-16T15:01:12.907Z,57.62
2023-02-16T15:03:48.273Z,58.54
2023-02-16T15:06:25.693Z,58.86
2023-02-16T15:08:59.236Z,58.66
2023-02-16T15:12:01.445Z,58.54
2023-02-16T15:14:37.821Z,58.54
2023-02-16T15:17:08.187Z,58.55
2023-02-16T15:19:36.528Z,58.46
2023-02-16T15:22:27.048Z,58.85
2023-02-16T15:25:27.831Z,58.52
2023-02-16T15:28:19.188Z,59.13
2023-02-16T15:30:49.802Z,59.16
2023-02-16T15:33:23.074Z,59.59
2023-02-16T15:35:59.873Z,59.76
2023-02-16T15:38:34.384Z,59.83
2023-02-16T15:41:33.299Z,59.90
2023-02-16T15:44:02.836Z,60.19
2023-02-16T15:46:33.382Z,60.19
2023-02-16T15:49:29.853Z,60.59
2023-02-16T15:51:59.291Z,61.25
2023-02-16T15:54:37.135Z,61.77
2023-02-16T15:57:21.254Z,61.67
2023-02-16T15:59:58.441Z,61.53
2023-02-16T16:02:47.564Z,61.63
2023-02-16T16:05:27.232Z,62.01
2023-02-16T16:07:56.732Z,62.02
2023-02-16T16:10:36.584Z,62.45
2023-02-16T16:13:06.745Z,62.63
2023-02-16T16:15:40.817Z,63.32
2023-02-16T16:18:45.360Z,63.62
2023-02-16T16:21:14.761Z,63.37
2023-02-16T16:23:53.310Z,64.05
2023-02-16T16:26:22.479Z,64.20
2023-02-16T16:28:50.630Z,64.66
2023-02-16T16:31:20.840Z,64.74
2023-02-16T16:34:00.144Z,65.14
2023-02-16T16:36:36.914Z,65.47
2023-02-16T16:39:16.184Z,65.56
2023-02-16T16:42:22.217Z,65.93
2023-02-16T16:44:54.387Z,66.22
2023-02-16T16:47:23.352Z,66.64
2023-02-16T16:50:01.942Z,66.75
2023-02-16T16:52:42.275Z,67.18
2023-02-16T16:55:21.657Z,67.22
2023-02-16T16:57:54.686Z,67.98
2023-02-16T17:00:25.155Z,67.83
2023-02-16T17:02:52.597Z,68.25
2023-02-16T17:05:20.638Z,68.63
2023-02-16T17:07:50.152Z,68.94
2023-02-16T17:10:19.812Z,69.18
2023-02-16T17:12:51.643Z,69.27
2023-02-16T17:15:28.692Z,69.38
2023-02-16T17:17:56.570Z,69.70
2023-02-16T17:20:24.715Z,70.65
2023-02-16T17:22:52.084Z,70.60
2023-02-16T17:25:19.659Z,70.92
2023-02-16T17:27:47.029Z,71.03
2023-02-16T17:30:15.196Z,71.20
2023-02-16T17:32:42.779Z,71.52
2023-02-16T17:35:10.238Z,71.76
2023-02-16T17:37:37.772Z,72.09
2023-02-16T17:40:11.937Z,72.30
2023-02-16T17:42:39.473Z,72.81
2023-02-16T17:45:07.149Z,72.98
2023-02-16T17:47:34.753Z,72.83
2023-02-16T17:50:02.444Z,73.00
2023-02-16T17:52:29.813Z,73.00
2023-02-16T17:54:57.198Z,73.90
2023-02-16T17:57:24.580Z,73.72
2023-02-16T17:59:52.226Z,73.84
2023-02-16T18:02:19.673Z,74.21
2023-02-16T18:04:47.061Z,74.17
2023-02-16T18:07:15.369Z,74.76
2023-02-16T18:09:42.861Z,75.63
2023-02-16T18:12:10.389Z,75.82
2023-02-16T18:14:37.815Z,75.76
2023-02-16T18:17:06.871Z,76.17
2023-02-16T18:19:34.486Z,75.93
2023-02-16T18:22:02.050Z,76.40
2023-02-16T18:24:29.400Z,76.76
2023-02-16T18:26:56.801Z,77.05
2023-02-16T18:29:24.420Z,77.44
2023-02-16T18:31:51.846Z,77.54
2023-02-16T18:34:19.378Z,77.03
2023-02-16T18:36:46.777Z,77.55
2023-02-16T18:39:14.385Z,77.77
2023-02-16T18:41:41.740Z,78.00
2023-02-16T18:44:09.022Z,77.76
2023-02-16T18:46:36.426Z,78.25
2023-02-16T18:49:03.757Z,78.95
2023-02-16T18:51:32.046Z,79.31
2023-02-16T18:53:59.644Z,79.76
2023-02-16T18:56:27.738Z,80.16
2023-02-16T18:58:55.052Z,79.83
2023-02-16T19:01:27.479Z,79.41
2023-02-16T19:03:55.104Z,80.05
2023-02-16T19:06:23.291Z,79.79
2023-02-16T19:08:51.440Z,80.33
2023-02-16T19:11:20.002Z,79.66
2023-02-16T19:13:47.983Z,79.51
2023-02-16T19:16:16.326Z,79.13
2023-02-16T19:18:43.767Z,79.01
2023-02-16T19:21:13.957Z,79.04
2023-02-16T19:23:41.316Z,79.34
2023-02-16T19:26:12.835Z,79.53
2023-02-16T19:28:40.552Z,79.92
2023-02-16T19:31:15.399Z,79.93
2023-02-16T19:33:42.793Z,79.87
2023-02-16T19:36:10.996Z,79.84
2023-02-16T19:38:39.586Z,80.22
2023-02-16T19:41:20.030Z,80.28
2023-02-16T19:43:47.869Z,80.43
2023-02-16T19:46:15.734Z,80.11
2023-02-16T19:48:43.496Z,80.25
2023-02-16T19:51:11.067Z,80.52
2023-02-16T19:53:39.322Z,80.77
2023-02-16T19:56:09.406Z,81.26
2023-02-16T19:58:36.843Z,80.69
2023-02-16T20:01:12.382Z,80.58
2023-02-16T20:03:40.334Z,80.50
2023-02-16T20:06:18.430Z,80.83
2023-02-16T20:08:46.862Z,80.58
2023-02-16T20:11:15.747Z,80.85
2023-02-16T20:13:43.378Z,80.60
2023-02-16T20:16:12.379Z,80.80
2023-02-16T20:18:40.336Z,80.93
2023-02-16T20:21:11.654Z,81.42
2023-02-16T20:23:39.925Z,81.27
2023-02-16T20:26:11.400Z,80.86
2023-02-16T20:28:39.634Z,80.45
2023-02-16T20:31:22.982Z,81.38
2023-02-16T20:33:50.906Z,80.06
2023-02-16T20:36:18.848Z,80.72
2023-02-16T20:38:46.361Z,80.73
2023-02-16T20:41:18.979Z,80.72
2023-02-16T20:43:46.885Z,80.51
2023-02-16T20:46:15.822Z,80.49
2023-02-16T20:48:44.279Z,80.88
2023-02-16T20:51:14.034Z,80.24
2023-02-16T20:53:41.861Z,79.42
2023-02-16T20:56:15.621Z,79.06
2023-02-16T20:58:44.860Z,79.01
2023-02-16T21:01:16.943Z,78.81
2023-02-16T21:03:44.304Z,78.34
2023-02-16T21:06:11.804Z,78.75
2023-02-16T21:08:39.344Z,78.79
2023-02-16T21:11:06.802Z,78.84
2023-02-16T21:13:34.325Z,78.47
2023-02-16T21:16:01.764Z,79.24
2023-02-16T21:18:29.356Z,78.80
2023-02-16T21:20:58.881Z,79.48
2023-02-16T21:23:26.443Z,79.34
2023-02-16T21:26:01.792Z,79.70
2023-02-16T21:28:29.473Z,79.34
2023-02-16T21:31:02.410Z,78.71
2023-02-16T21:33:31.080Z,79.05
2023-02-16T21:36:13.530Z,80.13
2023-02-16T21:38:42.091Z,80.52
2023-02-16T21:41:25.108Z,79.79
2023-02-16T21:44:09.229Z,79.08
2023-02-16T21:46:37.745Z,79.17
2023-02-16T21:49:07.433Z,78.90
2023-02-16T21:51:37.156Z,78.96
2023-02-16T21:54:14.437Z,78.79
2023-02-16T21:56:51.076Z,79.10
2023-02-16T21:59:20.007Z,79.03
2023-02-16T22:01:53.117Z,79.66
2023-02-16T22:04:22.680Z,80.14
2023-02-16T22:06:51.262Z,80.50
2023-02-16T22:09:23.200Z,80.33
2023-02-16T22:11:51.055Z,80.13
2023-02-16T22:14:18.596Z,79.46
2023-02-16T22:16:47.572Z,79.82
2023-02-16T22:19:17.097Z,80.11
2023-02-16T22:21:46.070Z,79.96
2023-02-16T22:24:15.587Z,79.48
2023-02-16T22:26:43.375Z,79.56
2023-02-16T22:29:12.072Z,81.20
2023-02-16T22:31:44.422Z,81.23
2023-02-16T22:34:14.583Z,81.39
2023-02-16T22:36:42.010Z,81.52
2023-02-16T22:39:13.151Z,80.81
2023-02-16T22:41:41.289Z,81.46
2023-02-16T22:44:10.697Z,80.56
2023-02-16T22:46:38.148Z,80.89
2023-02-16T22:49:05.496Z,80.54
2023-02-16T22:51:32.976Z,80.59
2023-02-16T22:54:01.536Z,81.67
2023-02-16T22:56:30.410Z,82.75
2023-02-16T22:58:59.360Z,84.06
2023-02-16T23:01:29.287Z,82.89
2023-02-16T23:03:58.392Z,82.40
2023-02-16T23:06:28.708Z,82.14
2023-02-16T23:09:01.195Z,81.62
2023-02-16T23:11:29.679Z,82.17
2023-02-16T23:13:57.342Z,82.63
2023-02-16T23:16:26.299Z,82.02
2023-02-16T23:18:56.351Z,81.91
2023-02-16T23:21:27.492Z,81.75
2023-02-16T23:23:55.607Z,81.87
2023-02-16T23:26:25.352Z,82.45
2023-02-16T23:28:56.292Z,82.72
2023-02-16T23:31:23.894Z,82.20
2023-02-16T23:33:52.027Z,82.19
2023-02-16T23:36:19.362Z,82.22
2023-02-16T23:38:46.717Z,82.70
2023-02-16T23:41:15.057Z,82.52
2023-02-16T23:43:42.848Z,82.46
2023-02-16T23:46:10.916Z,82.61
2023-02-16T23:48:38.613Z,82.49
2023-02-16T23:51:06.334Z,82.55
2023-02-16T23:53:33.997Z,82.39
2023-02-16T23:56:07.490Z,82.18
2023-02-16T23:58:37.701Z,82.14
